Time;durP1;ratioP1;P1;durP2;ratioP2;P2;SDS_P1;SDS_P2;PMS_P1;PMS_P2;Temp;Humidity;BMP_temperature;BMP_pressure;BME280_temperature;BME280_humidity;BME280_pressure;Samples;Min_cycle;Max_cycle;Signal;HPM_P1;HPM_P2
2022/12/13 00:01:53;;;;;;;6.73;3.93;;;;;;;-7.44;88.89;95639.91;5059313;28;20222;-72
2022/12/13 00:04:21;;;;;;;6.87;4.63;;;;;;;-7.38;88.81;95642.09;5058122;28;20248;-73
2022/12/13 00:06:48;;;;;;;4.30;2.97;;;;;;;-7.29;87.75;95642.44;5058724;28;20226;-72
2022/12/13 00:09:17;;;;;;;5.27;2.93;;;;;;;-7.18;86.63;95640.91;5058368;28;20254;-72
2022/12/13 00:11:44;;;;;;;9.17;3.27;;;;;;;-7.30;86.22;95639.97;5059116;28;20213;-71
2022/12/13 00:14:12;;;;;;;19.87;4.70;;;;;;;-7.42;87.18;95638.06;5058226;28;20286;-73
2022/12/13 00:16:39;;;;;;;3.73;3.20;;;;;;;-7.37;87.80;95626.66;5057174;28;20233;-73
2022/12/13 00:19:06;;;;;;;6.90;5.03;;;;;;;-7.50;85.93;95628.25;5058276;28;20206;-72
2022/12/13 00:21:33;;;;;;;12.10;3.93;;;;;;;-7.48;86.82;95635.88;5059085;28;20231;-73
2022/12/13 00:24:01;;;;;;;3.67;3.00;;;;;;;-7.49;89.00;95637.59;5057575;28;20210;-73
2022/12/13 00:26:31;;;;;;;9.03;5.00;;;;;;;-7.39;89.76;95632.81;5058433;28;20233;-72
2022/12/13 00:28:59;;;;;;;5.50;2.13;;;;;;;-7.35;89.02;95635.09;5058850;28;20214;-73
2022/12/13 00:31:26;;;;;;;9.00;3.33;;;;;;;-7.43;87.72;95631.31;5058049;28;20211;-73
2022/12/13 00:33:53;;;;;;;11.03;2.87;;;;;;;-7.57;87.91;95631.28;5057480;28;20660;-71
2022/12/13 00:36:19;;;;;;;11.00;5.23;;;;;;;-7.77;90.81;95631.53;5058390;28;20209;-74
2022/12/13 00:38:59;;;;;;;9.67;4.63;;;;;;;-7.62;90.43;95621.28;5058399;28;20445;-74
2022/12/13 00:41:26;;;;;;;4.97;3.10;;;;;;;-7.48;90.97;95625.66;5057155;28;20259;-73
2022/12/13 00:43:54;;;;;;;9.27;3.00;;;;;;;-7.38;90.45;95616.53;5057543;28;20210;-71
2022/12/13 00:46:21;;;;;;;5.03;3.47;;;;;;;-7.35;88.93;95613.81;5057481;28;20415;-74
2022/12/13 00:48:49;;;;;;;5.97;3.27;;;;;;;-7.33;87.77;95619.66;5058447;28;20256;-72
2022/12/13 00:51:16;;;;;;;7.43;4.80;;;;;;;-7.41;87.53;95614.16;5057919;28;20230;-73
2022/12/13 00:53:43;;;;;;;23.13;5.23;;;;;;;-7.43;88.95;95616.78;5057458;28;20214;-72
2022/12/13 00:56:11;;;;;;;9.63;5.97;;;;;;;-7.33;88.70;95614.53;5057478;28;20206;-73
2022/12/13 00:58:38;;;;;;;11.00;4.87;;;;;;;-7.57;89.96;95619.28;5057500;28;20689;-72
2022/12/13 01:01:08;;;;;;;4.87;3.53;;;;;;;-7.55;90.93;95616.66;5057624;28;20315;-72
2022/12/13 01:03:34;;;;;;;6.60;4.33;;;;;;;-7.58;90.73;95620.19;5057572;28;20582;-72
2022/12/13 01:06:01;;;;;;;6.10;3.03;;;;;;;-7.41;90.36;95624.38;5057743;28;20674;-73
2022/12/13 01:08:28;;;;;;;5.03;3.77;;;;;;;-7.37;88.97;95618.19;5055375;28;20210;-73
2022/12/13 01:10:55;;;;;;;11.03;4.50;;;;;;;-7.49;87.89;95606.91;5057125;28;20240;-72
2022/12/13 01:13:21;;;;;;;12.30;5.03;;;;;;;-7.42;87.34;95620.16;5058148;28;20205;-72
2022/12/13 01:15:48;;;;;;;12.27;3.30;;;;;;;-7.46;87.22;95616.13;5057995;28;20716;-74
2022/12/13 01:18:18;;;;;;;4.27;3.30;;;;;;;-7.41;86.00;95606.47;5056898;28;20235;-71
2022/12/13 01:20:56;;;;;;;10.50;3.20;;;;;;;-7.65;84.34;95610.38;5057301;28;20759;-71
2022/12/13 01:23:22;;;;;;;5.60;2.87;;;;;;;-7.64;84.56;95617.16;5058063;28;20226;-71
2022/12/13 01:25:49;;;;;;;3.80;3.30;;;;;;;-7.84;84.35;95606.38;5057284;28;20757;-71
2022/12/13 01:28:15;;;;;;;10.73;3.37;;;;;;;-8.09;87.51;95604.31;5057551;28;20229;-71
2022/12/13 01:30:42;;;;;;;3.50;2.30;;;;;;;-8.26;89.58;95601.06;5058054;28;20207;-71
2022/12/13 01:33:08;;;;;;;6.90;2.83;;;;;;;-8.08;90.12;95595.75;5058221;28;20207;-71
2022/12/13 01:35:36;;;;;;;5.37;3.70;;;;;;;-7.85;89.73;95592.78;5057418;28;20201;-71
2022/12/13 01:38:03;;;;;;;6.67;4.40;;;;;;;-7.84;88.84;95599.53;5057807;28;20226;-71
2022/12/13 01:40:29;;;;;;;5.70;3.07;;;;;;;-7.78;88.51;95594.06;5057993;28;20575;-71
2022/12/13 01:42:56;;;;;;;7.03;3.60;;;;;;;-7.79;88.16;95603.50;5057850;28;20226;-71
2022/12/13 01:45:24;;;;;;;5.00;3.80;;;;;;;-7.79;89.15;95587.31;5057201;28;20718;-70
2022/12/13 01:47:54;;;;;;;10.03;4.20;;;;;;;-7.70;89.69;95586.81;5057839;28;20257;-71
2022/12/13 01:50:23;;;;;;;5.27;3.57;;;;;;;-7.65;89.78;95582.25;5056982;28;20209;-71
2022/12/13 01:52:53;;;;;;;6.10;3.53;;;;;;;-7.69;88.26;95584.19;5057675;28;20211;-71
2022/12/13 01:55:22;;;;;;;5.10;4.03;;;;;;;-7.79;87.30;95588.16;5057582;28;20206;-71
2022/12/13 01:57:50;;;;;;;6.07;3.83;;;;;;;-7.82;86.15;95590.03;5057301;28;20233;-71
2022/12/13 02:00:17;;;;;;;7.03;2.97;;;;;;;-7.76;86.04;95584.59;5057798;28;20210;-71
2022/12/13 02:02:44;;;;;;;6.03;4.17;;;;;;;-7.78;86.20;95583.84;5057814;28;20229;-71
2022/12/13 02:05:15;;;;;;;6.47;3.07;;;;;;;-7.84;85.60;95573.16;5056564;28;20222;-71
2022/12/13 02:07:44;;;;;;;13.63;5.07;;;;;;;-7.97;87.75;95574.72;5056520;28;20721;-71
2022/12/13 02:10:12;;;;;;;9.00;4.90;;;;;;;-8.04;89.82;95568.28;5057741;28;20218;-71
2022/12/13 02:12:40;;;;;;;9.57;3.50;;;;;;;-7.93;90.48;95573.66;5057646;28;20214;-71
2022/12/13 02:15:10;;;;;;;4.67;3.77;;;;;;;-7.84;90.49;95566.28;5056642;28;20206;-71
2022/12/13 02:17:52;;;;;;;11.60;6.17;;;;;;;-7.67;89.68;95566.19;5057535;28;20257;-70
2022/12/13 02:20:48;;;;;;;8.67;4.83;;;;;;;-7.65;89.10;95565.19;5057022;28;20210;-71
2022/12/13 02:24:03;;;;;;;4.93;1.83;;;;;;;-7.70;87.60;95561.22;5050350;28;20237;-71
2022/12/13 02:26:51;;;;;;;3.53;2.43;;;;;;;-7.77;88.84;95554.84;5057594;28;20225;-71
2022/12/13 02:29:45;;;;;;;4.00;3.33;;;;;;;-7.75;88.81;95558.09;5057875;28;20206;-71
2022/12/13 02:32:18;;;;;;;8.20;3.93;;;;;;;-7.75;88.55;95555.56;5043674;28;20284;-71
2022/12/13 02:34:49;;;;;;;7.43;3.83;;;;;;;-7.78;87.36;95548.06;5056470;28;20216;-71
2022/12/13 02:37:20;;;;;;;3.63;3.27;;;;;;;-7.89;87.45;95560.63;5057289;28;20575;-71
2022/12/13 02:39:55;;;;;;;7.50;3.53;;;;;;;-7.86;88.81;95555.34;5059556;28;20207;-70
2022/12/13 02:42:29;;;;;;;8.67;3.63;;;;;;;-7.83;89.25;95550.06;5060780;28;20223;-71
2022/12/13 02:45:02;;;;;;;5.13;3.20;;;;;;;-7.78;88.54;95542.94;5059943;28;20200;-70
2022/12/13 02:47:32;;;;;;;4.27;3.87;;;;;;;-7.88;89.01;95546.09;5060689;28;20218;-71
2022/12/13 02:50:02;;;;;;;9.10;4.33;;;;;;;-7.95;91.11;95548.19;5061309;28;20236;-71
2022/12/13 02:52:32;;;;;;;5.10;4.37;;;;;;;-7.86;89.98;95545.13;5061089;28;20212;-71
2022/12/13 02:54:59;;;;;;;10.00;4.77;;;;;;;-7.92;88.65;95545.44;5060473;28;20206;-70
2022/12/13 02:57:31;;;;;;;11.40;4.83;;;;;;;-8.08;90.99;95542.09;5061273;28;21452;-70
2022/12/13 03:00:00;;;;;;;8.03;4.63;;;;;;;-8.06;91.26;95536.91;5060973;28;20208;-71
2022/12/13 03:02:37;;;;;;;19.17;6.23;;;;;;;-7.90;91.31;95542.81;5060798;28;20221;-71
2022/12/13 03:08:10;;;;;;;8.37;4.10;;;;;;;-7.80;92.07;95537.94;5018329;28;20248;-70
2022/12/13 03:10:45;;;;;;;6.13;3.53;;;;;;;-7.75;91.18;95533.38;5059903;28;20215;-71
2022/12/13 03:13:35;;;;;;;9.30;4.07;;;;;;;-7.77;90.21;95529.25;5061475;28;20216;-71
2022/12/13 03:16:08;;;;;;;11.53;5.23;;;;;;;-7.83;89.62;95531.34;5061003;28;20213;-71
2022/12/13 03:18:38;;;;;;;6.03;3.97;;;;;;;-8.08;90.44;95533.59;5060547;28;20202;-71
2022/12/13 03:21:07;;;;;;;8.53;4.07;;;;;;;-8.00;91.44;95536.56;5061656;28;20209;-71
2022/12/13 03:23:34;;;;;;;17.87;6.47;;;;;;;-7.95;91.83;95529.47;5060094;28;20239;-70
2022/12/13 03:26:05;;;;;;;6.50;4.37;;;;;;;-7.89;92.92;95517.19;5061345;28;20212;-71
2022/12/13 03:28:32;;;;;;;7.90;4.60;;;;;;;-7.86;93.51;95521.31;5060957;28;20201;-71
2022/12/13 03:30:58;;;;;;;11.93;5.97;;;;;;;-7.84;93.73;95522.84;5060993;28;20200;-70
2022/12/13 03:33:25;;;;;;;14.40;5.47;;;;;;;-7.79;92.67;95524.25;5060263;28;20561;-71
2022/12/13 03:35:53;;;;;;;7.53;4.07;;;;;;;-7.80;91.19;95520.03;5060804;28;20567;-71
2022/12/13 03:38:19;;;;;;;14.63;6.93;;;;;;;-7.84;90.89;95522.03;5060775;28;20226;-70
2022/12/13 03:40:46;;;;;;;8.40;4.73;;;;;;;-7.88;91.27;95525.66;5059411;28;20210;-71
2022/12/13 03:43:13;;;;;;;6.30;4.40;;;;;;;-7.83;90.68;95524.47;5060439;28;20230;-71
2022/12/13 03:45:39;;;;;;;12.60;6.30;;;;;;;-7.87;90.65;95527.31;5059533;28;20219;-70
2022/12/13 03:48:06;;;;;;;10.63;5.40;;;;;;;-7.89;90.08;95527.41;5059259;28;20219;-71
2022/12/13 03:50:32;;;;;;;6.73;5.07;;;;;;;-7.98;89.70;95530.47;5059792;28;20569;-71
2022/12/13 03:53:01;;;;;;;12.00;5.90;;;;;;;-7.97;90.35;95524.44;5059665;28;20214;-70
2022/12/13 03:55:28;;;;;;;8.40;4.13;;;;;;;-8.04;91.75;95517.19;5058805;28;20210;-70
2022/12/13 03:57:55;;;;;;;6.20;3.23;;;;;;;-8.03;91.54;95522.22;5059742;28;20242;-71
2022/12/13 04:00:21;;;;;;;10.60;6.10;;;;;;;-7.98;91.89;95520.25;5061398;28;20690;-72
2022/12/13 04:02:48;;;;;;;9.50;5.07;;;;;;;-7.86;91.65;95517.00;5059576;28;20231;-71
2022/12/13 04:05:14;;;;;;;6.23;4.03;;;;;;;-7.86;90.95;95514.44;5058170;28;20261;-70
2022/12/13 04:07:41;;;;;;;8.43;5.03;;;;;;;-7.86;91.18;95519.56;5058959;28;20238;-70
2022/12/13 04:10:10;;;;;;;14.83;6.07;;;;;;;-7.74;90.43;95518.84;5058624;28;21164;-70
2022/12/13 04:15:20;;;;;;;7.10;5.30;;;;;;;-7.90;89.16;95502.75;5058725;28;20761;-71
2022/12/13 04:17:47;;;;;;;5.47;3.80;;;;;;;-7.96;88.58;95503.06;5060683;28;20230;-71
2022/12/13 04:20:13;;;;;;;8.77;3.30;;;;;;;-8.17;87.73;95504.31;5060553;28;20215;-71
2022/12/13 04:22:40;;;;;;;6.70;3.23;;;;;;;-8.08;86.81;95498.66;5058173;28;20237;-70
2022/12/13 04:25:07;;;;;;;9.33;3.67;;;;;;;-8.19;86.73;95501.00;5057757;28;20208;-71
2022/12/13 04:27:36;;;;;;;7.43;4.10;;;;;;;-8.21;86.67;95502.00;5059010;28;20237;-71
2022/12/13 04:30:04;;;;;;;5.97;4.83;;;;;;;-8.26;88.12;95499.72;5059568;28;20313;-71
2022/12/13 04:32:30;;;;;;;11.73;4.43;;;;;;;-8.43;90.37;95502.34;5058270;28;20206;-71
2022/12/13 04:34:57;;;;;;;10.00;4.90;;;;;;;-8.30;91.83;95507.59;5057849;28;20207;-71
2022/12/13 04:37:23;;;;;;;9.13;3.70;;;;;;;-8.20;92.47;95495.97;5058956;28;20219;-71
2022/12/13 04:39:50;;;;;;;16.50;3.77;;;;;;;-8.13;92.80;95499.84;5058620;28;20694;-70
2022/12/13 04:42:16;;;;;;;13.50;3.53;;;;;;;-8.21;93.97;95494.34;5058882;28;20211;-71
2022/12/13 04:44:44;;;;;;;8.50;4.37;;;;;;;-8.17;94.17;95491.53;5058246;28;20232;-70
2022/12/13 04:47:11;;;;;;;8.73;4.53;;;;;;;-8.26;94.63;95497.16;5057786;28;20225;-71
2022/12/13 04:49:37;;;;;;;11.37;4.77;;;;;;;-8.22;95.04;95485.84;5058607;28;20225;-71
2022/12/13 04:52:04;;;;;;;9.80;3.87;;;;;;;-7.99;95.17;95485.38;5059217;28;20211;-70
2022/12/13 04:54:31;;;;;;;7.63;3.10;;;;;;;-7.96;95.15;95485.19;5059638;28;20195;-71
2022/12/13 04:56:58;;;;;;;6.30;3.47;;;;;;;-7.88;94.69;95483.00;5058234;28;20222;-71
2022/12/13 04:59:24;;;;;;;13.67;5.60;;;;;;;-7.94;95.28;95480.81;5058062;28;20214;-70
2022/12/13 05:01:52;;;;;;;12.73;5.67;;;;;;;-7.78;94.52;95484.16;5057299;28;20209;-71
2022/12/13 05:04:19;;;;;;;5.83;2.97;;;;;;;-8.09;95.70;95491.91;5057444;28;20221;-70
2022/12/13 05:06:45;;;;;;;8.00;4.07;;;;;;;-7.95;95.86;95478.38;5057787;28;20324;-71
2022/12/13 05:09:12;;;;;;;8.97;4.27;;;;;;;-7.83;95.35;95488.69;5058770;28;20210;-70
2022/12/13 05:11:38;;;;;;;22.20;6.00;;;;;;;-7.90;94.96;95486.56;5057858;28;20211;-71
2022/12/13 05:14:05;;;;;;;5.90;2.40;;;;;;;-7.78;94.82;95481.59;5057675;28;20568;-70
2022/12/13 05:16:31;;;;;;;6.10;4.13;;;;;;;-7.82;95.59;95487.78;5057875;28;20231;-70
2022/12/13 05:18:59;;;;;;;10.30;4.50;;;;;;;-7.77;95.60;95478.13;5058025;28;20218;-71
2022/12/13 05:21:26;;;;;;;9.63;4.70;;;;;;;-7.91;94.70;95485.75;5058662;28;20207;-70
2022/12/13 05:23:52;;;;;;;4.40;3.97;;;;;;;-7.94;94.97;95485.09;5057638;28;20774;-70
2022/12/13 05:26:19;;;;;;;5.93;3.70;;;;;;;-8.13;95.71;95476.84;5057281;28;20217;-70
2022/12/13 05:28:46;;;;;;;4.83;2.93;;;;;;;-8.01;95.79;95474.41;5057824;28;20650;-70
2022/12/13 05:31:13;;;;;;;11.50;4.13;;;;;;;-8.15;96.81;95474.38;5058679;28;20767;-70
2022/12/13 05:33:39;;;;;;;9.23;5.30;;;;;;;-8.14;98.37;95470.09;5057184;28;20207;-70
2022/12/13 05:36:08;;;;;;;5.50;3.03;;;;;;;-8.01;99.77;95474.41;5057870;28;20214;-70
2022/12/13 05:38:34;;;;;;;4.03;3.43;;;;;;;-8.06;100.00;95481.50;5057263;28;20749;-71
2022/12/13 05:41:01;;;;;;;15.67;5.13;;;;;;;-7.90;100.00;95479.75;5057826;28;20211;-72
2022/12/13 05:43:28;;;;;;;5.63;4.07;;;;;;;-7.83;100.00;95486.13;5057505;28;20232;-70
2022/12/13 05:45:55;;;;;;;10.43;3.97;;;;;;;-7.77;100.00;95484.06;5056917;28;20320;-70
2022/12/13 05:48:22;;;;;;;10.87;3.17;;;;;;;-7.66;100.00;95491.09;5057477;28;20237;-70
2022/12/13 05:50:48;;;;;;;3.93;3.53;;;;;;;-7.53;100.00;95492.06;5058042;28;20206;-71
2022/12/13 05:53:17;;;;;;;8.13;4.43;;;;;;;-7.50;100.00;95486.78;5057502;28;20204;-72
2022/12/13 05:55:43;;;;;;;4.63;4.27;;;;;;;-7.65;100.00;95482.53;5057122;28;20210;-72
2022/12/13 05:58:14;;;;;;;13.23;5.87;;;;;;;-7.54;100.00;95487.88;5056902;28;20238;-71
2022/12/13 06:00:40;;;;;;;13.03;5.90;;;;;;;-7.38;99.61;95491.16;5057572;28;20210;-71
2022/12/13 06:03:07;;;;;;;12.57;4.97;;;;;;;-7.39;99.02;95479.31;5057532;28;20229;-72
2022/12/13 06:05:34;;;;;;;6.10;4.40;;;;;;;-7.52;98.83;95483.47;5057107;28;20554;-72
2022/12/13 06:08:00;;;;;;;14.00;4.57;;;;;;;-7.48;100.00;95484.97;5058309;28;20236;-72
2022/12/13 06:10:28;;;;;;;9.23;4.80;;;;;;;-7.44;99.51;95482.13;5056810;28;20242;-71
2022/12/13 06:12:55;;;;;;;7.77;4.07;;;;;;;-7.45;99.78;95479.66;5057057;28;20301;-71
2022/12/13 06:15:21;;;;;;;7.23;4.33;;;;;;;-7.53;98.40;95477.53;5056472;28;20207;-71
2022/12/13 06:17:48;;;;;;;13.10;5.77;;;;;;;-7.68;98.93;95475.06;5056828;28;20569;-71
2022/12/13 06:20:14;;;;;;;9.53;5.80;;;;;;;-7.67;97.96;95469.03;5056984;28;20208;-71
2022/12/13 06:22:41;;;;;;;10.77;5.53;;;;;;;-7.70;99.46;95469.19;5057112;28;20214;-70
2022/12/13 06:25:08;;;;;;;12.67;5.80;;;;;;;-7.73;100.00;95471.94;5054893;28;20726;-71
2022/12/13 06:27:36;;;;;;;6.47;3.80;;;;;;;-7.63;100.00;95475.63;5056587;28;20232;-70
2022/12/13 06:30:02;;;;;;;28.10;8.23;;;;;;;-7.67;100.00;95474.16;5056234;28;20222;-70
2022/12/13 06:32:29;;;;;;;4.10;3.77;;;;;;;-7.60;100.00;95472.88;5056376;28;20204;-71
2022/12/13 06:34:55;;;;;;;17.80;6.33;;;;;;;-7.59;100.00;95477.06;5056108;28;20211;-70
2022/12/13 06:37:22;;;;;;;7.03;5.00;;;;;;;-7.63;100.00;95467.94;5056336;28;20222;-70
2022/12/13 06:39:48;;;;;;;13.30;5.20;;;;;;;-7.56;100.00;95476.88;5055955;28;20204;-70
2022/12/13 06:42:17;;;;;;;7.90;4.50;;;;;;;-7.54;100.00;95469.97;5057288;28;20206;-70
2022/12/13 06:44:45;;;;;;;7.30;4.77;;;;;;;-7.37;100.00;95468.06;5055821;28;20392;-70
2022/12/13 06:47:11;;;;;;;9.83;5.77;;;;;;;-7.46;100.00;95472.91;5056263;28;20226;-70
2022/12/13 06:49:38;;;;;;;8.53;4.67;;;;;;;-7.43;100.00;95463.31;5056539;28;20215;-70
2022/12/13 06:52:04;;;;;;;22.80;8.23;;;;;;;-7.43;100.00;95462.47;5056390;28;20212;-71
2022/12/13 06:54:31;;;;;;;15.27;6.13;;;;;;;-7.24;100.00;95463.03;5055929;28;20195;-71
2022/12/13 06:56:58;;;;;;;6.63;4.07;;;;;;;-7.35;100.00;95457.75;5056495;28;20318;-70
2022/12/13 06:59:25;;;;;;;10.13;5.03;;;;;;;-7.52;100.00;95465.56;5055974;28;20242;-70
2022/12/13 07:01:52;;;;;;;5.63;3.70;;;;;;;-7.36;100.00;95456.09;5056601;28;20498;-71
2022/12/13 07:04:19;;;;;;;7.33;6.10;;;;;;;-7.39;100.00;95448.63;5055025;28;20231;-70
2022/12/13 07:06:45;;;;;;;8.17;4.67;;;;;;;-7.36;100.00;95453.53;5055840;28;21177;-70
2022/12/13 07:09:12;;;;;;;11.57;6.73;;;;;;;-7.38;100.00;95456.19;5056780;28;20200;-70
2022/12/13 07:11:38;;;;;;;6.20;4.80;;;;;;;-7.29;100.00;95459.94;5056036;28;20203;-70
2022/12/13 07:14:05;;;;;;;15.33;5.33;;;;;;;-7.17;100.00;95463.41;5055172;28;20203;-70
2022/12/13 07:16:33;;;;;;;10.60;6.03;;;;;;;-7.20;100.00;95466.16;5056384;28;21422;-70
2022/12/13 07:19:03;;;;;;;11.83;5.27;;;;;;;-7.13;100.00;95467.44;5055938;28;20205;-71
2022/12/13 07:21:30;;;;;;;9.43;6.17;;;;;;;-7.22;100.00;95471.47;5056194;28;20203;-71
2022/12/13 07:23:57;;;;;;;10.63;4.83;;;;;;;-7.22;100.00;95466.34;5055983;28;20229;-70
2022/12/13 07:26:24;;;;;;;10.07;5.57;;;;;;;-7.31;100.00;95474.56;5058517;28;20242;-70
2022/12/13 07:28:51;;;;;;;14.90;6.43;;;;;;;-7.03;100.00;95481.31;5059842;28;20207;-70
2022/12/13 07:31:18;;;;;;;2.33;2.13;;;;;;;-7.13;100.00;95487.09;5059521;28;20208;-70
2022/12/13 07:33:44;;;;;;;4.67;2.83;;;;;;;-7.05;100.00;95490.84;5059720;28;20280;-70
2022/12/13 07:36:14;;;;;;;13.90;6.37;;;;;;;-6.86;100.00;95481.16;5059476;28;20219;-70
2022/12/13 07:38:41;;;;;;;27.17;5.10;;;;;;;-6.83;100.00;95478.41;5059474;28;20588;-71
2022/12/13 07:41:08;;;;;;;16.77;5.93;;;;;;;-6.71;100.00;95479.41;5059959;28;20694;-71
2022/12/13 07:43:35;;;;;;;9.37;4.17;;;;;;;-6.83;100.00;95485.28;5059810;28;20236;-70
2022/12/13 07:46:05;;;;;;;7.90;3.57;;;;;;;-6.78;99.39;95489.19;5059790;28;20205;-71
2022/12/13 07:48:32;;;;;;;7.30;4.40;;;;;;;-6.77;99.14;95480.59;5062131;28;20715;-71
2022/12/13 07:51:01;;;;;;;3.07;2.73;;;;;;;-6.77;99.69;95478.03;5062908;28;20203;-71
2022/12/13 07:53:29;;;;;;;18.40;6.20;;;;;;;-6.64;99.59;95475.53;5059935;28;20212;-70
2022/12/13 07:55:56;;;;;;;13.27;5.17;;;;;;;-6.58;99.16;95470.84;5058682;28;20958;-70
2022/12/13 07:58:22;;;;;;;7.20;5.23;;;;;;;-6.58;98.13;95478.53;5063888;28;20234;-71
2022/12/13 08:00:49;;;;;;;11.77;4.00;;;;;;;-6.59;97.92;95474.34;5072871;28;20237;-71
2022/12/13 08:03:15;;;;;;;17.87;5.77;;;;;;;-6.51;97.94;95472.13;5071916;28;20208;-70
2022/12/13 08:05:42;;;;;;;13.63;6.37;;;;;;;-6.60;97.16;95477.81;5069387;28;20589;-71
2022/12/13 08:08:10;;;;;;;13.33;5.50;;;;;;;-6.44;97.68;95470.81;5072241;28;20240;-70
2022/12/13 08:10:38;;;;;;;13.20;5.43;;;;;;;-6.30;97.30;95473.34;5072680;28;20205;-71
2022/12/13 08:13:06;;;;;;;21.00;6.07;;;;;;;-6.22;96.84;95476.25;5070582;28;20254;-71
2022/12/13 08:15:32;;;;;;;6.90;4.17;;;;;;;-6.19;95.61;95484.59;5071898;28;20207;-71
2022/12/13 08:18:00;;;;;;;8.83;4.70;;;;;;;-6.20;96.43;95482.13;5068985;28;21017;-71
2022/12/13 08:20:26;;;;;;;8.70;5.83;;;;;;;-6.20;96.50;95487.25;5069087;28;20571;-71
2022/12/13 08:22:57;;;;;;;11.40;5.33;;;;;;;-6.16;97.30;95493.81;5061122;28;20228;-71
2022/12/13 08:25:24;;;;;;;12.77;5.57;;;;;;;-6.19;96.22;95499.16;5070459;28;20228;-72
2022/12/13 08:27:52;;;;;;;12.70;5.27;;;;;;;-6.29;96.33;95498.88;5068089;28;20223;-71
2022/12/13 08:30:19;;;;;;;14.30;5.03;;;;;;;-6.39;96.89;95502.13;5064322;28;20711;-70
2022/12/13 08:32:45;;;;;;;11.00;5.90;;;;;;;-6.45;97.67;95511.00;5065180;28;20201;-71
2022/12/13 08:35:21;;;;;;;8.77;5.47;;;;;;;-6.35;97.90;95511.25;5055614;28;20223;-70
2022/12/13 08:37:47;;;;;;;16.43;6.00;;;;;;;-6.51;98.96;95506.25;5067235;28;20255;-70
2022/12/13 08:40:14;;;;;;;10.93;5.87;;;;;;;-6.20;98.67;95507.75;5061711;28;20197;-70
2022/12/13 08:42:41;;;;;;;16.80;5.47;;;;;;;-6.02;97.29;95503.13;5066877;28;20668;-71
2022/12/13 08:45:10;;;;;;;11.67;5.63;;;;;;;-6.42;99.20;95497.19;5070499;28;20250;-70
2022/12/13 08:47:37;;;;;;;12.77;3.53;;;;;;;-6.17;99.66;95505.81;5069184;28;20224;-71
2022/12/13 08:50:04;;;;;;;5.47;3.37;;;;;;;-6.12;99.82;95500.41;5070500;28;20213;-71
2022/12/13 08:52:31;;;;;;;4.80;2.53;;;;;;;-6.24;100.00;95496.03;5070004;28;20576;-70
2022/12/13 08:54:58;;;;;;;12.83;5.77;;;;;;;-6.22;100.00;95504.44;5069295;28;20204;-71
2022/12/13 08:57:24;;;;;;;15.83;6.20;;;;;;;-6.08;100.00;95492.44;5069151;28;20591;-71
2022/12/13 08:59:52;;;;;;;21.43;4.77;;;;;;;-6.02;100.00;95497.16;5069905;28;20208;-71
2022/12/13 09:02:20;;;;;;;12.43;6.20;;;;;;;-5.86;100.00;95498.66;5064571;28;20267;-70
2022/12/13 09:04:47;;;;;;;11.43;5.07;;;;;;;-6.11;100.00;95491.78;5069837;28;20232;-70
2022/12/13 09:07:14;;;;;;;11.20;4.87;;;;;;;-5.87;100.00;95488.50;5068671;28;20236;-70
2022/12/13 09:09:40;;;;;;;9.93;4.23;;;;;;;-5.93;100.00;95497.41;5068827;28;20207;-70
2022/12/13 09:12:07;;;;;;;8.10;4.70;;;;;;;-5.79;100.00;95491.38;5071396;28;20425;-70
2022/12/13 09:14:34;;;;;;;9.90;5.47;;;;;;;-5.87;100.00;95484.22;5068488;28;20215;-70
2022/12/13 09:17:01;;;;;;;9.33;5.33;;;;;;;-5.86;100.00;95488.38;5068299;28;20223;-70
2022/12/13 09:19:29;;;;;;;14.07;6.03;;;;;;;-5.50;100.00;95490.31;5068884;28;20212;-70
2022/12/13 09:21:55;;;;;;;13.53;5.33;;;;;;;-5.70;99.45;95485.63;5068971;28;20215;-70
2022/12/13 09:24:22;;;;;;;8.80;6.37;;;;;;;-5.43;99.06;95487.25;5068350;28;20712;-70
2022/12/13 09:26:48;;;;;;;8.97;4.83;;;;;;;-5.49;99.33;95497.09;5068640;28;20220;-71
2022/12/13 09:29:15;;;;;;;12.83;5.03;;;;;;;-5.65;100.00;95497.25;5069188;28;20208;-70
2022/12/13 09:31:42;;;;;;;11.63;6.43;;;;;;;-5.63;100.00;95485.13;5066124;28;20660;-70
2022/12/13 09:34:09;;;;;;;11.07;5.97;;;;;;;-5.60;100.00;95495.22;5069126;28;20204;-70
2022/12/13 09:36:37;;;;;;;14.63;7.93;;;;;;;-5.42;100.00;95489.69;5068380;28;20302;-70
2022/12/13 09:39:04;;;;;;;21.57;7.40;;;;;;;-5.24;100.00;95475.66;5068803;28;20706;-70
2022/12/13 09:41:33;;;;;;;10.70;5.60;;;;;;;-5.15;99.17;95474.22;5068436;28;20668;-71
2022/12/13 09:44:03;;;;;;;15.90;8.30;;;;;;;-5.03;99.30;95481.09;5067659;28;20208;-70
2022/12/13 09:46:33;;;;;;;12.17;5.43;;;;;;;-4.91;98.74;95475.13;5068472;28;20707;-71
2022/12/13 09:49:03;;;;;;;6.30;4.13;;;;;;;-4.71;98.13;95476.25;5067571;28;20211;-70
2022/12/13 09:51:32;;;;;;;8.10;4.77;;;;;;;-4.72;97.78;95471.22;5066638;28;20204;-70
2022/12/13 09:54:00;;;;;;;18.97;7.23;;;;;;;-4.62;97.07;95469.63;5068393;28;20197;-70
2022/12/13 09:56:27;;;;;;;13.93;4.83;;;;;;;-4.51;96.78;95480.00;5067746;28;20217;-70
2022/12/13 09:58:56;;;;;;;13.23;7.17;;;;;;;-4.37;97.19;95470.41;5067595;28;20620;-70
2022/12/13 10:01:23;;;;;;;15.47;6.90;;;;;;;-4.32;95.88;95470.91;5068008;28;20232;-70
2022/12/13 10:03:51;;;;;;;20.63;8.30;;;;;;;-4.53;97.64;95472.41;5068486;28;20556;-71
2022/12/13 10:06:20;;;;;;;18.87;7.77;;;;;;;-4.24;96.37;95468.63;5068429;28;20201;-70
2022/12/13 10:08:49;;;;;;;20.70;6.53;;;;;;;-4.18;96.68;95466.44;5064876;28;20222;-70
2022/12/13 10:11:19;;;;;;;9.47;3.53;;;;;;;-3.91;96.33;95467.03;5067470;28;20568;-71
2022/12/13 10:13:53;;;;;;;14.70;8.50;;;;;;;-3.78;95.11;95467.00;5067962;28;20661;-70
2022/12/13 10:16:27;;;;;;;13.20;6.17;;;;;;;-3.76;94.88;95472.88;5066424;28;20677;-70
2022/12/13 10:18:54;;;;;;;11.73;5.80;;;;;;;-3.81;94.62;95475.75;5068934;28;20273;-70
2022/12/13 10:21:25;;;;;;;17.43;7.80;;;;;;;-3.82;94.66;95470.72;5068788;28;20221;-70
2022/12/13 10:23:52;;;;;;;11.33;6.17;;;;;;;-3.78;94.54;95469.56;5068368;28;20315;-71
2022/12/13 10:26:20;;;;;;;13.23;5.13;;;;;;;-3.60;93.86;95462.16;5066814;28;20283;-70
2022/12/13 10:28:47;;;;;;;15.00;5.13;;;;;;;-3.70;94.40;95460.38;5067049;28;20664;-70
2022/12/13 10:31:18;;;;;;;16.93;6.17;;;;;;;-3.67;95.56;95454.19;5064517;28;20673;-71
2022/12/13 10:33:54;;;;;;;11.87;5.93;;;;;;;-3.52;94.01;95459.03;5067188;28;20212;-71
2022/12/13 10:36:32;;;;;;;16.97;8.17;;;;;;;-3.50;93.99;95450.25;5068071;28;20204;-71
2022/12/13 10:38:59;;;;;;;12.13;4.77;;;;;;;-3.48;93.56;95453.53;5065307;28;20202;-70
2022/12/13 10:41:36;;;;;;;11.63;5.97;;;;;;;-3.48;94.84;95458.69;5067897;28;20204;-70
2022/12/13 10:44:23;;;;;;;9.40;5.90;;;;;;;-3.54;94.09;95459.16;5068204;28;20213;-71
2022/12/13 10:46:53;;;;;;;10.77;6.93;;;;;;;-3.60;94.82;95462.16;5066124;28;20724;-71
2022/12/13 10:49:22;;;;;;;19.20;7.07;;;;;;;-3.43;94.37;95456.59;5068418;28;20205;-71
2022/12/13 10:51:50;;;;;;;13.83;5.53;;;;;;;-3.51;94.00;95443.47;5067492;28;20210;-71
2022/12/13 10:54:25;;;;;;;12.53;6.40;;;;;;;-3.18;94.19;95433.25;5067693;28;20209;-70
2022/12/13 10:56:58;;;;;;;14.10;6.60;;;;;;;-3.04;93.44;95442.50;5068023;28;20217;-70
2022/12/13 10:59:30;;;;;;;24.97;9.27;;;;;;;-3.18;92.77;95438.41;5069273;28;20196;-70
2022/12/13 11:01:57;;;;;;;14.40;6.77;;;;;;;-3.26;93.38;95445.03;5072211;28;20222;-70
2022/12/13 11:04:28;;;;;;;20.63;8.13;;;;;;;-3.10;93.09;95437.81;5063644;28;20205;-70
2022/12/13 11:06:55;;;;;;;10.83;6.07;;;;;;;-3.16;92.75;95423.63;5065399;28;20237;-69
2022/12/13 11:09:30;;;;;;;15.60;7.13;;;;;;;-2.92;92.64;95417.44;5073490;28;20198;-69
2022/12/13 11:12:01;;;;;;;14.67;7.13;;;;;;;-2.87;92.42;95428.22;5059875;28;21138;-71
2022/12/13 11:14:32;;;;;;;15.63;7.03;;;;;;;-2.82;92.41;95422.72;5059084;28;20204;-68
2022/12/13 11:17:05;;;;;;;10.47;4.83;;;;;;;-2.77;91.59;95426.59;5059819;28;20225;-69
2022/12/13 11:19:37;;;;;;;13.00;6.67;;;;;;;-2.65;91.03;95419.69;5059374;28;20206;-71
2022/12/13 11:22:05;;;;;;;11.53;6.33;;;;;;;-2.93;91.45;95412.41;5059825;28;20627;-71
2022/12/13 11:24:36;;;;;;;17.33;5.93;;;;;;;-2.89;91.87;95413.81;5059293;28;20207;-71
2022/12/13 11:27:20;;;;;;;18.73;6.07;;;;;;;-3.00;92.91;95418.97;5059526;28;20223;-70
2022/12/13 11:30:00;;;;;;;12.47;5.50;;;;;;;-2.73;94.30;95419.44;5059407;28;20207;-70
2022/12/13 11:32:41;;;;;;;8.73;4.50;;;;;;;-2.67;93.01;95421.53;5060474;28;20209;-71
2022/12/13 11:35:14;;;;;;;13.73;6.83;;;;;;;-2.57;91.25;95422.47;5059528;28;20207;-70
2022/12/13 11:37:49;;;;;;;10.70;4.97;;;;;;;-2.45;90.53;95408.66;5059594;28;20226;-70
2022/12/13 11:40:23;;;;;;;11.20;5.40;;;;;;;-2.46;90.74;95407.00;5059672;28;20204;-70